Weather reports worldwide

Advertisment
Ell, Netherlands (6377): temperature & dewpoint: 29.07.2020 01:00:00 - 04.08.2020 01:00:00 (CEST)Ell, Netherlands (6377): temperature 5cm: 29.07.2020 01:00:00 - 04.08.2020 01:00:00 (CEST)Ell, Netherlands (6377): wind speed & gusts: 29.07.2020 01:00:00 - 04.08.2020 01:00:00 (CEST)Ell, Netherlands (6377): wind direction: 29.07.2020 01:00:00 - 04.08.2020 01:00:00 (CEST)Ell, Netherlands (6377): visibility: 29.07.2020 01:00:00 - 04.08.2020 01:00:00 (CEST)Ell, Netherlands (6377): precipitation: 29.07.2020 01:00:00 - 04.08.2020 01:00:00 (CEST)
Date & Time tt [°C] td [°C] tt 5cm [°C] ff [km/h] ff [kn] fx [km/h] fx [kn] dd vv [km] rr [mm]
04.08.2020 01:00:00 13,7 11,7 12,4 7 4 11 6 W 74 0,0
04.08.2020 00:00:00 13,1 11,0 10,8 7 4 11 6 W 75 0,0
03.08.2020 23:00:00 13,1 10,7 10,3 4 2 11 6 WNW 60 0,0
03.08.2020 22:00:00 13,6 11,5 11,6 7 4 14 8 WNW 67 0,0
03.08.2020 21:00:00 16,0 11,5 14,8 11 6 18 10 NW 73 0,0
03.08.2020 20:00:00 17,2 10,7 16,4 11 6 32 18 NNW 75 0,0
03.08.2020 19:00:00 19,1 11,4 18,8 18 10 36 19 NNW 74 0,0
03.08.2020 18:00:00 19,2 11,6 20,9 25 14 43 23 NW 59 0,0
03.08.2020 17:00:00 22,1 8,5 23,7 4 2 22 12 NNE 75 0,0
03.08.2020 16:00:00 22,4 10,5 24,6 4 2 18 10 ENE 75 0,0
03.08.2020 15:00:00 21,7 12,0 24,3 7 4 22 12 ENE 74 0,0
03.08.2020 14:00:00 21,3 10,7 24,7 7 4 14 8 E 71 0,0
03.08.2020 13:00:00 20,8 10,3 24,5 4 2 11 6 S 64 0,0
03.08.2020 12:00:00 19,7 11,0 22,6 4 2 7 4 SW 56 0,0
03.08.2020 11:00:00 19,0 11,6 21,1 4 2 11 6 SE 62 0,0
03.08.2020 10:00:00 17,0 12,9 18,3 4 2 7 4 ESE 38 0,0
03.08.2020 09:00:00 13,8 12,3 13,9 4 2 4 2 N 21 0,0
03.08.2020 08:00:00 11,7 11,4 12,4 4 2 4 2 W 13 0,0
03.08.2020 07:00:00 8,7 8,7 7,5 0 0 4 2 N 9 0,0
03.08.2020 06:00:00 8,2 8,0 5,5 0 0 4 2 N 6 0,0
03.08.2020 05:00:00 8,4 8,1 5,5 0 0 7 4 N 1,2 0,0
03.08.2020 04:00:00 8,8 8,7 6,0 4 2 7 4 W 7 0,0
03.08.2020 03:00:00 9,7 9,5 6,2 4 2 4 2 W 7 0,0
03.08.2020 02:00:00 10,3 10,0 6,7 4 2 4 2 SSW 17 0,0
03.08.2020 01:00:00 10,8 10,2 7,4 4 2 7 4 W 28 0,0
03.08.2020 00:00:00 11,8 11,2 8,4 4 2 4 2 W 36 0,0
02.08.2020 23:00:00 13,4 11,5 10,3 4 2 11 6 N 50 0,0
02.08.2020 22:00:00 16,3 11,5 13,6 7 4 22 12 WNW 67 0,0
02.08.2020 21:00:00 18,6 11,5 17,3 11 6 22 12 NW 74 0,0
02.08.2020 20:00:00 20,5 12,2 20,4 11 6 25 14 NW 73 0,0
02.08.2020 19:00:00 21,5 13,0 22,8 14 8 29 16 WNW 74 0,0
02.08.2020 18:00:00 22,2 13,8 21,7 14 8 29 16 WNW 75 0,0
02.08.2020 17:00:00 22,0 13,2 23,0 14 8 29 16 NW 73 0,0
02.08.2020 16:00:00 21,8 15,8 23,5 4 2 7 4 WNW 54 0,0
02.08.2020 15:00:00 20,2 15,8 21,5 7 4 32 18 N 28 0,0
02.08.2020 14:00:00 22,4 15,5 25,8 11 6 22 12 SW 48 0,0
02.08.2020 13:00:00 19,8 15,7 21,3 11 6 22 12 WSW 31 0,0
02.08.2020 12:00:00 18,5 15,5 18,8 14 8 25 14 WSW 19 0,0
02.08.2020 11:00:00 18,9 15,2 19,8 14 8 25 14 WSW 45 0,0
02.08.2020 10:00:00 18,6 14,9 19,7 11 6 25 14 W 35 0,0
02.08.2020 09:00:00 18,1 14,6 18,5 14 8 22 12 WSW 41 0,0
02.08.2020 08:00:00 16,7 13,3 16,1 14 8 22 12 WSW 52 0,0
02.08.2020 07:00:00 15,6 13,5 14,7 7 4 18 10 SW 53 0,0
02.08.2020 06:00:00 16,2 13,5 14,9 11 6 14 8 WSW 42 0,0
02.08.2020 05:00:00 16,6 14,8 15,9 4 2 7 4 WSW 46 0,0
02.08.2020 04:00:00 16,9 14,7 16,3 4 2 7 4 W 52 0,0
02.08.2020 03:00:00 17,8 14,3 16,7 7 4 11 6 W 63 0,0
02.08.2020 02:00:00 18,0 14,3 16,6 7 4 7 4 W 70 0,0
02.08.2020 01:00:00 18,6 14,2 17,3 4 2 11 6 WNW 74 0,0
02.08.2020 00:00:00 18,7 14,1 17,6 7 4 11 6 W 75 0,0
01.08.2020 23:00:00 20,4 13,4 19,1 7 4 14 8 W 57 0,0
01.08.2020 22:00:00 21,6 13,8 20,3 7 4 22 12 NNW 75 0,0
01.08.2020 21:00:00 22,8 17,1 21,7 11 6 25 14 NW 51 0,0
01.08.2020 20:00:00 23,4 17,6 22,5 14 8 29 16 NW 40 0,0
01.08.2020 19:00:00 24,8 19,0 25,8 14 8 25 14 NW 20 0,0
01.08.2020 18:00:00 24,8 19,0 26,2 14 8 25 14 NW 16 0,0
01.08.2020 17:00:00 26,1 19,3 26,2 14 8 29 16 WNW 40 0,0
01.08.2020 16:00:00 26,5 19,4 27,2 14 8 29 16 WNW 25 0,0
01.08.2020 15:00:00 27,0 19,1 28,7 14 8 25 14 W 73 0,0
01.08.2020 14:00:00 26,8 18,6 29,0 14 8 25 14 NW 57 0,0
01.08.2020 13:00:00 26,2 18,4 28,5 11 6 22 12 WSW 44 0,0
01.08.2020 12:00:00 25,1 18,7 26,1 11 6 22 12 SW 14 4,6
01.08.2020 11:00:00 22,7 18,2 23,4 11 6 25 14 SSW 1,5 1,4
01.08.2020 10:00:00 24,2 17,8 23,1 11 6 22 12 S 74 0,0
01.08.2020 09:00:00 22,0 17,2 21,9 11 6 18 10 W 50 0,0
01.08.2020 08:00:00 22,8 18,3 22,2 7 4 14 8 NW 34 0,0
01.08.2020 07:00:00 20,3 18,2 19,4 0 0 7 4 N 38 0,0
01.08.2020 06:00:00 20,8 17,6 19,7 4 2 14 8 S 24 0,0
01.08.2020 05:00:00 22,9 16,5 21,3 11 6 18 10 WSW 68 0,0
01.08.2020 04:00:00 22,2 15,5 19,4 11 6 18 10 SSW 56 0,0
01.08.2020 03:00:00 21,4 16,5 18,9 4 2 7 4 S 73 0,0
01.08.2020 02:00:00 19,8 16,8 17,5 4 2 7 4 E 42 0,0
01.08.2020 01:00:00 19,6 16,3 16,7 4 2 4 2 ENE 74 0,0
01.08.2020 00:00:00 22,7 15,8 18,1 4 2 14 8 E 75 0,0
31.07.2020 23:00:00 24,6 15,7 19,7 7 4 14 8 ENE 63 0,0
31.07.2020 22:00:00 24,6 15,1 19,1 7 4 11 6 ENE 6 0,0
31.07.2020 21:00:00 26,8 15,4 22,8 7 4 14 8 ENE 58 0,0
31.07.2020 20:00:00 30,8 16,2 29,2 7 4 14 8 NE 73 0,0
31.07.2020 19:00:00 32,4 14,2 31,2 11 6 18 10 ENE 74 0,0
31.07.2020 18:00:00 33,0 14,3 32,4 11 6 22 12 E 74 0,0
31.07.2020 17:00:00 32,7 15,3 33,0 11 6 22 12 E 72 0,0
31.07.2020 16:00:00 32,5 14,9 33,4 11 6 25 14 E 75 0,0
31.07.2020 15:00:00 31,6 14,0 32,8 14 8 25 14 NE 74 0,0
31.07.2020 14:00:00 30,7 13,1 31,8 11 6 25 14 E 75 0,0
31.07.2020 13:00:00 29,5 13,4 30,7 11 6 22 12 E 74 0,0
31.07.2020 12:00:00 27,2 13,9 21,0 14 8 25 14 E 73 0,0
31.07.2020 11:00:00 25,2 13,4 23,6 14 8 22 12 E 2,5 0,0
31.07.2020 10:00:00 23,2 14,2 24,5 11 6 14 8 ENE 2,1 0,0
31.07.2020 09:00:00 21,2 12,8 22,7 11 6 18 10 E 69 0,0
31.07.2020 08:00:00 18,1 13,4 18,6 4 2 11 6 E 28 0,0
31.07.2020 07:00:00 14,6 11,4 11,7 4 2 11 6 NE 55 0,0
31.07.2020 06:00:00 14,0 10,8 9,8 7 4 11 6 NE 36 0,0
31.07.2020 05:00:00 11,9 10,5 9,5 4 2 7 4 NE 23 0,0
31.07.2020 04:00:00 13,2 11,4 10,0 4 2 4 2 NNE 36 0,0
31.07.2020 03:00:00 14,3 11,6 10,3 4 2 7 4 ENE 54 0,0
31.07.2020 02:00:00 16,0 11,6 11,0 7 4 7 4 NE 41 0,0
31.07.2020 01:00:00 15,9 12,0 11,5 7 4 7 4 NE 38 0,0
31.07.2020 00:00:00 16,6 12,4 12,2 7 4 7 4 NE 59 0,0
30.07.2020 23:00:00 17,7 12,6 13,4 4 2 7 4 NNE 42 0,0
30.07.2020 22:00:00 19,4 13,1 15,7 7 4 14 8 NNE 44 0,0
30.07.2020 21:00:00 22,2 12,6 19,6 7 4 14 8 N 73 0,0
30.07.2020 20:00:00 24,4 15,1 25,1 4 2 11 6 N 71 0,0
30.07.2020 19:00:00 26,3 13,2 27,8 4 2 11 6 NE 66 0,0
30.07.2020 18:00:00 26,8 9,4 29,4 4 2 14 8 N 70 0,0
30.07.2020 17:00:00 25,8 10,4 29,5 7 4 14 8 NE 74 0,0
30.07.2020 16:00:00 25,7 10,5 29,2 7 4 14 8 NE 75 0,0
30.07.2020 15:00:00 25,6 10,7 30,0 4 2 14 8 ENE 75 0,0
30.07.2020 14:00:00 25,6 11,0 29,6 4 2 11 6 S 43 0,0
30.07.2020 13:00:00 24,8 11,4 29,2 7 4 14 8 WSW 70 0,0
30.07.2020 12:00:00 23,0 11,8 28,0 4 2 14 8 E 7 0,0
30.07.2020 11:00:00 21,0 11,6 24,6 7 4 18 10 E 15 0,0
30.07.2020 10:00:00 19,8 12,5 22,9 7 4 11 6 E 63 0,0
30.07.2020 09:00:00 17,3 12,8 18,9 4 2 7 4 ENE 46 0,0
30.07.2020 08:00:00 14,5 11,2 15,3 7 4 11 6 NE 42 0,0
30.07.2020 07:00:00 11,5 10,3 8,7 4 2 7 4 NE 26 0,0
30.07.2020 06:00:00 9,8 9,6 6,1 4 2 7 4 NE 15 0,0
30.07.2020 05:00:00 9,6 9,5 6,7 4 2 4 2 NE 12 0,0
30.07.2020 04:00:00 10,6 9,8 8,0 0 0 4 2 N 21 0,0
30.07.2020 03:00:00 11,6 10,9 10,1 4 2 4 2 N 38 0,0
30.07.2020 02:00:00 11,6 10,2 9,7 4 2 7 4 SSE 36 0,0
30.07.2020 01:00:00 11,8 10,8 9,5 4 2 7 4 NE 41 0,0
30.07.2020 00:00:00 13,9 10,4 10,4 4 2 11 6 N 74 0,0
29.07.2020 23:00:00 15,6 10,2 11,8 7 4 11 6 N 75 0,0
29.07.2020 22:00:00 16,6 11,0 12,7 4 2 11 6 N 75 0,0
29.07.2020 21:00:00 18,6 10,9 16,7 7 4 14 8 N 73 0,0
29.07.2020 20:00:00 20,5 11,2 20,8 7 4 18 10 NNW 65 0,0
29.07.2020 19:00:00 21,7 10,1 23,8 7 4 29 16 NW 73 0,0
29.07.2020 18:00:00 22,5 10,2 25,7 11 6 29 16 WNW 73 0,0
29.07.2020 17:00:00 22,8 10,2 26,4 11 6 25 14 WNW 74 0,0
29.07.2020 16:00:00 22,5 10,4 24,3 11 6 25 14 W 75 0,0
29.07.2020 15:00:00 22,0 9,9 26,6 11 6 32 18 W 74 0,0
29.07.2020 14:00:00 20,6 8,9 23,1 14 8 32 18 WSW 74 0,0
29.07.2020 13:00:00 19,8 9,6 22,3 18 10 29 16 W 72 0,0
29.07.2020 12:00:00 19,3 9,3 20,6 18 10 32 18 WSW 75 0,0
29.07.2020 11:00:00 19,2 9,9 21,0 14 8 25 14 WSW 72 0,0
29.07.2020 10:00:00 18,0 10,0 19,8 14 8 22 12 W 75 0,0
29.07.2020 09:00:00 16,6 11,6 17,3 7 4 14 8 WSW 41 0,0
29.07.2020 08:00:00 14,4 11,6 14,3 7 4 14 8 WSW 42 0,0
29.07.2020 07:00:00 12,2 11,0 10,4 4 2 11 6 SW 28 0,0
29.07.2020 06:00:00 12,3 10,8 11,2 7 4 14 8 SW 31 0,0
29.07.2020 05:00:00 12,6 10,6 11,4 7 4 14 8 SW 51 0,0
29.07.2020 04:00:00 13,3 10,5 11,6 7 4 14 8 SW 64 0,0
29.07.2020 03:00:00 14,1 10,4 13,1 7 4 14 8 SW 74 0,0
29.07.2020 02:00:00 14,9 10,0 13,8 7 4 11 6 SW 75 0,0
29.07.2020 01:00:00 14,6 10,1 13,4 7 4 11 6 SSW 66 0,0

tt = temperature
td = dewpoint
tt 5cm = temperature 5cm
ff = wind speed
fx = gusts
dd = wind direction
vv = visibility
rr = precipitation

Next stations